25  °F
Temperature
18  °F
  Dewpoint
74  %
   Humidity
Temp | Dewpoint | Humidity
Wind Speed
 mph
Wind Speed
 kts
Wind Speed
Calm
Due North

Wind Speed
Clear
Conditions
Pressure 1032.22 (hPa) - 30.48 (in)
Visibility 10.0 (mi) - 16.1 (km)

Current Conditions
KBED
Location 6km (3.2mi)
Metar :KBED 180751Z AUTO 00000KT 10SM CLR M04/M08 A3048 RMK AO2 SLP336 T10391083
Tue 18th February 03:51 am

Airport
  Metar Aviation API Data Provided by https://www.checkwx.com/ CSS/SVG/PHP scripts by weather34.com © 2015-2020